SAS106 ESMS-ESSA
Flight info
| Callsign | SAS106 |
|---|---|
| Flight time | 0h 51m |
| Altitude | 35000 |
| Route | NEXIL N851 ROXEN DCT MIKNA N851 PELUP Z226 NILUG |
| Aircraft | A320/M-SDE3FGHIRWY/LB1 |
Departure
| Time | 2026-05-07 07:03 |
|---|---|
| Airport | Malmö Sturup Airport (ESMS) |
Arrival
| Time | 2026-05-07 07:54 |
|---|---|
| Airport | Stockholm-Arlanda Airport (ESSA) |
| Time | Latitude | Longitude | Altitude | Speed | Heading |
|---|---|---|---|---|---|
| 2026-05-07 06:39 | 55.54008 | 13.36786 | 227 ft | 0 kts | 353° |
| 2026-05-07 06:53 | 55.54006 | 13.36786 | 227 ft | 2 kts | 353° |
| 2026-05-07 06:53 | 55.53980 | 13.36790 | 227 ft | 3 kts | 0° |
| 2026-05-07 06:53 | 55.53953 | 13.36785 | 230 ft | 3 kts | 22° |
| 2026-05-07 06:54 | 55.53937 | 13.36762 | 228 ft | 1 kts | 83° |
| 2026-05-07 06:54 | 55.53937 | 13.36760 | 228 ft | 0 kts | 83° |
| 2026-05-07 06:56 | 55.53939 | 13.36804 | 229 ft | 8 kts | 83° |
| 2026-05-07 06:56 | 55.53946 | 13.36909 | 227 ft | 10 kts | 84° |
| 2026-05-07 06:56 | 55.53954 | 13.37061 | 227 ft | 14 kts | 84° |
| 2026-05-07 06:57 | 55.53985 | 13.37229 | 227 ft | 16 kts | 41° |
| 2026-05-07 06:57 | 55.54096 | 13.37234 | 226 ft | 18 kts | 354° |
| 2026-05-07 06:57 | 55.54227 | 13.37205 | 226 ft | 21 kts | 353° |
| 2026-05-07 06:57 | 55.54376 | 13.37172 | 222 ft | 16 kts | 352° |
| 2026-05-07 06:58 | 55.54461 | 13.37152 | 221 ft | 14 kts | 352° |
| 2026-05-07 06:58 | 55.54519 | 13.37140 | 221 ft | 12 kts | 354° |
| 2026-05-07 06:58 | 55.54619 | 13.37135 | 221 ft | 13 kts | 6° |
| 2026-05-07 06:58 | 55.54673 | 13.37163 | 223 ft | 6 kts | 26° |
| 2026-05-07 06:59 | 55.54714 | 13.37200 | 223 ft | 2 kts | 24° |
| 2026-05-07 06:59 | 55.54723 | 13.37207 | 221 ft | 2 kts | 24° |
| 2026-05-07 07:01 | 55.54732 | 13.37214 | 222 ft | 6 kts | 24° |
| 2026-05-07 07:01 | 55.54790 | 13.37313 | 218 ft | 13 kts | 75° |
| 2026-05-07 07:01 | 55.54754 | 13.37396 | 217 ft | 9 kts | 179° |
| 2026-05-07 07:01 | 55.54734 | 13.37396 | 217 ft | 0 kts | 176° |
| 2026-05-07 07:02 | 55.54637 | 13.37418 | 220 ft | 45 kts | 171° |
| 2026-05-07 07:02 | 55.54087 | 13.37528 | 228 ft | 111 kts | 174° |
| 2026-05-07 07:02 | 55.53148 | 13.37724 | 249 ft | 158 kts | 174° |
| 2026-05-07 07:02 | 55.52041 | 13.37933 | 693 ft | 163 kts | 173° |
| 2026-05-07 07:03 | 55.50970 | 13.38457 | 1375 ft | 161 kts | 143° |
| 2026-05-07 07:03 | 55.50371 | 13.40050 | 1865 ft | 159 kts | 96° |
| 2026-05-07 07:03 | 55.50450 | 13.42009 | 2343 ft | 166 kts | 70° |
| 2026-05-07 07:03 | 55.50978 | 13.43900 | 2804 ft | 176 kts | 53° |
| 2026-05-07 07:04 | 55.51898 | 13.45420 | 3279 ft | 194 kts | 29° |
| 2026-05-07 07:04 | 55.53142 | 13.46628 | 3912 ft | 207 kts | 33° |
| 2026-05-07 07:04 | 55.54307 | 13.48119 | 4767 ft | 211 kts | 38° |
| 2026-05-07 07:04 | 55.55177 | 13.49333 | 5423 ft | 213 kts | 38° |
| 2026-05-07 07:05 | 55.55689 | 13.50033 | 5797 ft | 209 kts | 37° |
| 2026-05-07 07:05 | 55.56864 | 13.51622 | 6149 ft | 217 kts | 37° |
| 2026-05-07 07:06 | 55.58066 | 13.53284 | 6929 ft | 221 kts | 37° |
| 2026-05-07 07:06 | 55.59330 | 13.54887 | 7670 ft | 230 kts | 30° |
| 2026-05-07 07:06 | 55.60771 | 13.56419 | 8055 ft | 254 kts | 29° |
| 2026-05-07 07:06 | 55.62361 | 13.58037 | 8598 ft | 271 kts | 25° |
| 2026-05-07 07:07 | 55.64163 | 13.59086 | 9385 ft | 276 kts | 8° |
| 2026-05-07 07:07 | 55.66087 | 13.59528 | 10199 ft | 281 kts | 6° |
| 2026-05-07 07:07 | 55.68102 | 13.59965 | 10523 ft | 304 kts | 6° |
| 2026-05-07 07:07 | 55.70266 | 13.60431 | 10913 ft | 320 kts | 6° |
| 2026-05-07 07:08 | 55.72492 | 13.60914 | 11586 ft | 326 kts | 6° |
| 2026-05-07 07:08 | 55.74763 | 13.61414 | 12296 ft | 331 kts | 6° |
| 2026-05-07 07:08 | 55.77059 | 13.61924 | 13006 ft | 335 kts | 6° |
| 2026-05-07 07:08 | 55.79394 | 13.62421 | 13729 ft | 340 kts | 5° |
| 2026-05-07 07:09 | 55.81793 | 13.62897 | 14384 ft | 344 kts | 4° |
| 2026-05-07 07:09 | 55.84182 | 13.63357 | 15020 ft | 348 kts | 4° |
| 2026-05-07 07:09 | 55.86575 | 13.63815 | 15643 ft | 352 kts | 4° |
| 2026-05-07 07:09 | 55.89041 | 13.64544 | 16267 ft | 359 kts | 14° |
| 2026-05-07 07:10 | 55.91437 | 13.65868 | 16898 ft | 363 kts | 15° |
| 2026-05-07 07:10 | 55.93863 | 13.67232 | 17383 ft | 372 kts | 15° |
| 2026-05-07 07:10 | 55.96387 | 13.68657 | 17671 ft | 386 kts | 15° |
| 2026-05-07 07:10 | 55.98973 | 13.70127 | 18141 ft | 394 kts | 15° |
| 2026-05-07 07:11 | 56.01597 | 13.71627 | 18689 ft | 399 kts | 15° |
| 2026-05-07 07:11 | 56.04253 | 13.73146 | 19229 ft | 403 kts | 15° |
| 2026-05-07 07:11 | 56.06940 | 13.74679 | 19790 ft | 408 kts | 15° |
| 2026-05-07 07:11 | 56.09656 | 13.76231 | 20358 ft | 412 kts | 15° |
| 2026-05-07 07:12 | 56.12404 | 13.77804 | 20887 ft | 416 kts | 14° |
| 2026-05-07 07:12 | 56.15142 | 13.79374 | 21384 ft | 421 kts | 14° |
| 2026-05-07 07:12 | 56.17940 | 13.80979 | 21887 ft | 424 kts | 14° |
| 2026-05-07 07:12 | 56.20768 | 13.82602 | 22367 ft | 428 kts | 14° |
| 2026-05-07 07:13 | 56.23613 | 13.84238 | 22834 ft | 432 kts | 14° |
| 2026-05-07 07:13 | 56.26490 | 13.85897 | 23295 ft | 436 kts | 14° |
| 2026-05-07 07:13 | 56.29388 | 13.87569 | 23737 ft | 439 kts | 14° |
| 2026-05-07 07:13 | 56.32311 | 13.89262 | 24124 ft | 443 kts | 14° |
| 2026-05-07 07:14 | 56.35251 | 13.90971 | 24512 ft | 445 kts | 14° |
| 2026-05-07 07:14 | 56.38201 | 13.92685 | 24896 ft | 448 kts | 14° |
| 2026-05-07 07:14 | 56.41176 | 13.94408 | 25277 ft | 450 kts | 14° |
| 2026-05-07 07:14 | 56.44168 | 13.96138 | 25647 ft | 453 kts | 14° |
| 2026-05-07 07:15 | 56.47176 | 13.97883 | 26024 ft | 455 kts | 14° |
| 2026-05-07 07:15 | 56.50197 | 13.99648 | 26399 ft | 458 kts | 14° |
| 2026-05-07 07:15 | 56.53235 | 14.01432 | 26771 ft | 460 kts | 15° |
| 2026-05-07 07:15 | 56.56221 | 14.03639 | 27138 ft | 467 kts | 24° |
| 2026-05-07 07:16 | 56.58999 | 14.06745 | 27487 ft | 473 kts | 34° |
| 2026-05-07 07:16 | 56.61646 | 14.10311 | 27836 ft | 476 kts | 34° |
| 2026-05-07 07:16 | 56.64314 | 14.13912 | 28179 ft | 478 kts | 34° |
| 2026-05-07 07:16 | 56.66991 | 14.17528 | 28509 ft | 481 kts | 34° |
| 2026-05-07 07:17 | 56.69686 | 14.21173 | 28828 ft | 484 kts | 34° |
| 2026-05-07 07:17 | 56.72393 | 14.24842 | 29134 ft | 486 kts | 34° |
| 2026-05-07 07:17 | 56.75107 | 14.28531 | 29450 ft | 489 kts | 34° |
| 2026-05-07 07:17 | 56.77838 | 14.32247 | 29751 ft | 491 kts | 34° |
| 2026-05-07 07:18 | 56.80580 | 14.35985 | 30002 ft | 493 kts | 34° |
| 2026-05-07 07:18 | 56.83330 | 14.39743 | 30067 ft | 494 kts | 34° |
| 2026-05-07 07:18 | 56.88839 | 14.47292 | 30057 ft | 495 kts | 34° |
| 2026-05-07 07:19 | 56.94345 | 14.54858 | 30055 ft | 495 kts | 34° |
| 2026-05-07 07:19 | 56.99857 | 14.62465 | 30053 ft | 496 kts | 34° |
| 2026-05-07 07:20 | 57.05343 | 14.70069 | 30058 ft | 493 kts | 34° |
| 2026-05-07 07:20 | 57.10792 | 14.77649 | 30056 ft | 496 kts | 34° |
| 2026-05-07 07:21 | 57.16292 | 14.85325 | 30056 ft | 497 kts | 34° |
| 2026-05-07 07:21 | 57.21798 | 14.93026 | 30056 ft | 497 kts | 34° |
| 2026-05-07 07:22 | 57.27303 | 15.00772 | 30055 ft | 497 kts | 35° |
| 2026-05-07 07:22 | 57.32805 | 15.08554 | 30054 ft | 498 kts | 35° |
| 2026-05-07 07:23 | 57.38295 | 15.16350 | 30055 ft | 498 kts | 35° |
| 2026-05-07 07:23 | 57.43199 | 15.23325 | 30052 ft | 495 kts | 34° |
| 2026-05-07 07:24 | 57.48599 | 15.30967 | 30051 ft | 490 kts | 34° |
| 2026-05-07 07:24 | 57.54059 | 15.38793 | 30050 ft | 498 kts | 35° |
| 2026-05-07 07:25 | 57.62276 | 15.50694 | 30053 ft | 499 kts | 35° |
| 2026-05-07 07:26 | 57.67763 | 15.58647 | 30048 ft | 500 kts | 35° |
| 2026-05-07 07:26 | 57.73259 | 15.66623 | 30051 ft | 500 kts | 35° |
| 2026-05-07 07:27 | 57.78762 | 15.74628 | 30053 ft | 501 kts | 35° |
| 2026-05-07 07:27 | 57.84246 | 15.82675 | 30053 ft | 500 kts | 35° |
| 2026-05-07 07:28 | 57.89723 | 15.90752 | 30053 ft | 500 kts | 35° |
| 2026-05-07 07:28 | 57.95189 | 15.98824 | 30052 ft | 500 kts | 35° |
| 2026-05-07 07:29 | 58.00661 | 16.06937 | 30053 ft | 500 kts | 35° |
| 2026-05-07 07:29 | 58.06123 | 16.15058 | 30056 ft | 500 kts | 35° |
| 2026-05-07 07:30 | 58.11594 | 16.23233 | 30243 ft | 503 kts | 35° |
| 2026-05-07 07:30 | 58.14344 | 16.27351 | 30475 ft | 504 kts | 36° |
| 2026-05-07 07:30 | 58.17096 | 16.31481 | 30678 ft | 506 kts | 36° |
| 2026-05-07 07:30 | 58.19861 | 16.35640 | 30873 ft | 508 kts | 36° |
| 2026-05-07 07:31 | 58.22632 | 16.39823 | 31053 ft | 510 kts | 36° |
| 2026-05-07 07:31 | 58.25406 | 16.44026 | 31223 ft | 511 kts | 36° |
| 2026-05-07 07:31 | 58.28041 | 16.48595 | 31371 ft | 516 kts | 45° |
| 2026-05-07 07:31 | 58.30306 | 16.53925 | 31515 ft | 519 kts | 52° |
| 2026-05-07 07:32 | 58.32461 | 16.59436 | 31651 ft | 520 kts | 52° |
| 2026-05-07 07:32 | 58.34620 | 16.64965 | 31778 ft | 522 kts | 52° |
| 2026-05-07 07:32 | 58.36786 | 16.70516 | 31928 ft | 522 kts | 52° |
| 2026-05-07 07:32 | 58.38953 | 16.76085 | 32049 ft | 523 kts | 52° |
| 2026-05-07 07:33 | 58.41117 | 16.81664 | 32064 ft | 524 kts | 52° |
| 2026-05-07 07:33 | 58.45439 | 16.92837 | 32062 ft | 524 kts | 52° |
| 2026-05-07 07:34 | 58.49761 | 17.04052 | 32062 ft | 524 kts | 52° |
| 2026-05-07 07:34 | 58.54066 | 17.15323 | 32065 ft | 525 kts | 52° |
| 2026-05-07 07:35 | 58.58366 | 17.26613 | 32062 ft | 525 kts | 52° |
| 2026-05-07 07:35 | 58.62670 | 17.37931 | 32064 ft | 525 kts | 53° |
| 2026-05-07 07:36 | 58.66967 | 17.49285 | 32067 ft | 526 kts | 53° |
| 2026-05-07 07:36 | 58.71242 | 17.60668 | 32314 ft | 521 kts | 53° |
| 2026-05-07 07:36 | 58.73343 | 17.66299 | 32976 ft | 512 kts | 53° |
| 2026-05-07 07:37 | 58.75399 | 17.71834 | 33660 ft | 505 kts | 53° |
| 2026-05-07 07:37 | 58.77441 | 17.77336 | 34007 ft | 507 kts | 53° |
| 2026-05-07 07:37 | 58.79691 | 17.82573 | 34071 ft | 504 kts | 41° |
| 2026-05-07 07:37 | 58.82353 | 17.86732 | 34068 ft | 483 kts | 28° |
| 2026-05-07 07:38 | 58.85261 | 17.89692 | 34063 ft | 461 kts | 17° |
| 2026-05-07 07:38 | 58.88223 | 17.91490 | 34058 ft | 433 kts | 7° |
| 2026-05-07 07:38 | 58.91123 | 17.92807 | 34020 ft | 423 kts | 7° |
| 2026-05-07 07:38 | 58.93985 | 17.94108 | 33446 ft | 420 kts | 7° |
| 2026-05-07 07:39 | 58.96816 | 17.95390 | 32813 ft | 416 kts | 7° |
| 2026-05-07 07:39 | 58.99621 | 17.96661 | 32153 ft | 412 kts | 6° |
| 2026-05-07 07:39 | 59.02399 | 17.97923 | 31503 ft | 408 kts | 6° |
| 2026-05-07 07:39 | 59.05152 | 17.99175 | 30864 ft | 405 kts | 6° |
| 2026-05-07 07:40 | 59.07923 | 18.00436 | 30244 ft | 401 kts | 6° |
| 2026-05-07 07:40 | 59.10590 | 18.01657 | 29550 ft | 398 kts | 6° |
| 2026-05-07 07:40 | 59.13269 | 18.02894 | 28839 ft | 394 kts | 6° |
| 2026-05-07 07:40 | 59.15922 | 18.04121 | 28144 ft | 390 kts | 7° |
| 2026-05-07 07:41 | 59.18544 | 18.05335 | 27463 ft | 385 kts | 7° |
| 2026-05-07 07:41 | 59.21139 | 18.06531 | 26815 ft | 380 kts | 7° |
| 2026-05-07 07:41 | 59.22866 | 18.07325 | 26362 ft | 378 kts | 7° |
| 2026-05-07 07:41 | 59.26330 | 18.08900 | 25507 ft | 393 kts | 7° |
| 2026-05-07 07:42 | 59.28132 | 18.09723 | 24996 ft | 393 kts | 7° |
| 2026-05-07 07:42 | 59.30819 | 18.10958 | 24261 ft | 401 kts | 7° |
| 2026-05-07 07:42 | 59.33554 | 18.12223 | 23532 ft | 403 kts | 8° |
| 2026-05-07 07:42 | 59.36269 | 18.13494 | 22490 ft | 401 kts | 8° |
| 2026-05-07 07:43 | 59.38979 | 18.14768 | 21410 ft | 400 kts | 8° |
| 2026-05-07 07:43 | 59.41680 | 18.16037 | 20366 ft | 399 kts | 8° |
| 2026-05-07 07:43 | 59.44370 | 18.17300 | 19356 ft | 396 kts | 9° |
| 2026-05-07 07:43 | 59.47042 | 18.18558 | 18375 ft | 393 kts | 9° |
| 2026-05-07 07:44 | 59.49687 | 18.19801 | 17273 ft | 388 kts | 9° |
| 2026-05-07 07:44 | 59.52314 | 18.20754 | 16198 ft | 380 kts | 3° |
| 2026-05-07 07:44 | 59.54914 | 18.21429 | 15173 ft | 375 kts | 3° |
| 2026-05-07 07:44 | 59.57483 | 18.22102 | 14172 ft | 369 kts | 3° |
| 2026-05-07 07:45 | 59.60010 | 18.22771 | 13113 ft | 364 kts | 4° |
| 2026-05-07 07:45 | 59.62505 | 18.23430 | 12070 ft | 358 kts | 4° |
| 2026-05-07 07:45 | 59.64938 | 18.24072 | 11260 ft | 348 kts | 5° |
| 2026-05-07 07:45 | 59.67294 | 18.24698 | 10643 ft | 334 kts | 5° |
| 2026-05-07 07:46 | 59.69513 | 18.25289 | 10481 ft | 309 kts | 4° |
| 2026-05-07 07:46 | 59.71568 | 18.25459 | 10337 ft | 284 kts | 353° |
| 2026-05-07 07:46 | 59.73479 | 18.25102 | 10026 ft | 271 kts | 351° |
| 2026-05-07 07:46 | 59.75332 | 18.24727 | 9583 ft | 264 kts | 351° |
| 2026-05-07 07:47 | 59.77141 | 18.24353 | 9122 ft | 259 kts | 352° |
| 2026-05-07 07:47 | 59.78915 | 18.23986 | 8658 ft | 254 kts | 352° |
| 2026-05-07 07:47 | 59.80659 | 18.23630 | 8203 ft | 250 kts | 352° |
| 2026-05-07 07:47 | 59.82339 | 18.22919 | 7758 ft | 245 kts | 337° |
| 2026-05-07 07:48 | 59.83812 | 18.21329 | 7307 ft | 239 kts | 321° |
| 2026-05-07 07:48 | 59.84982 | 18.19046 | 6869 ft | 234 kts | 306° |
| 2026-05-07 07:48 | 59.85785 | 18.16277 | 6435 ft | 229 kts | 292° |
| 2026-05-07 07:48 | 59.86390 | 18.13373 | 5976 ft | 226 kts | 292° |
| 2026-05-07 07:49 | 59.86959 | 18.10489 | 5522 ft | 223 kts | 283° |
| 2026-05-07 07:49 | 59.87074 | 18.07459 | 5053 ft | 219 kts | 262° |
| 2026-05-07 07:49 | 59.86634 | 18.04581 | 4566 ft | 217 kts | 239° |
| 2026-05-07 07:49 | 59.85641 | 18.02348 | 4092 ft | 217 kts | 213° |
| 2026-05-07 07:50 | 59.84350 | 18.00799 | 3621 ft | 217 kts | 210° |
| 2026-05-07 07:50 | 59.83039 | 17.99271 | 3163 ft | 219 kts | 210° |
| 2026-05-07 07:50 | 59.81714 | 17.97929 | 3010 ft | 210 kts | 197° |
| 2026-05-07 07:50 | 59.80302 | 17.97336 | 2906 ft | 207 kts | 190° |
| 2026-05-07 07:51 | 59.78892 | 17.96832 | 2664 ft | 204 kts | 191° |
| 2026-05-07 07:51 | 59.77535 | 17.96340 | 2400 ft | 192 kts | 191° |
| 2026-05-07 07:51 | 59.76259 | 17.95875 | 2129 ft | 179 kts | 191° |
| 2026-05-07 07:51 | 59.75081 | 17.95446 | 1883 ft | 167 kts | 190° |
| 2026-05-07 07:52 | 59.73966 | 17.95039 | 1671 ft | 161 kts | 190° |
| 2026-05-07 07:52 | 59.72895 | 17.94650 | 1455 ft | 152 kts | 190° |
| 2026-05-07 07:52 | 59.71887 | 17.94282 | 1240 ft | 145 kts | 189° |
| 2026-05-07 07:52 | 59.70915 | 17.93915 | 988 ft | 139 kts | 190° |
| 2026-05-07 07:53 | 59.69970 | 17.93572 | 795 ft | 138 kts | 188° |
| 2026-05-07 07:53 | 59.69032 | 17.93239 | 621 ft | 137 kts | 188° |
| 2026-05-07 07:53 | 59.68103 | 17.92908 | 453 ft | 136 kts | 188° |
| 2026-05-07 07:53 | 59.67163 | 17.92561 | 253 ft | 136 kts | 187° |
| 2026-05-07 07:54 | 59.66238 | 17.92230 | 128 ft | 131 kts | 188° |
| 2026-05-07 07:54 | 59.65471 | 17.91956 | 118 ft | 89 kts | 191° |
| 2026-05-07 07:54 | 59.65029 | 17.91798 | 114 ft | 47 kts | 190° |
| 2026-05-07 07:54 | 59.64718 | 17.91700 | 115 ft | 44 kts | 177° |
| 2026-05-07 07:55 | 59.64554 | 17.91772 | 114 ft | 8 kts | 162° |
| 2026-05-07 07:55 | 59.64525 | 17.91791 | 114 ft | 1 kts | 161° |
| 2026-05-07 07:55 | 59.64517 | 17.91797 | 113 ft | 1 kts | 159° |
| 2026-05-07 07:55 | 59.64506 | 17.91807 | 114 ft | 0 kts | 155° |
| 2026-05-07 07:56 | 59.64498 | 17.91815 | 114 ft | 4 kts | 152° |
| 2026-05-07 07:56 | 59.64463 | 17.91862 | 114 ft | 8 kts | 140° |
| 2026-05-07 07:56 | 59.64427 | 17.91966 | 113 ft | 10 kts | 117° |
| 2026-05-07 07:56 | 59.64429 | 17.92077 | 112 ft | 8 kts | 44° |
| 2026-05-07 07:57 | 59.64483 | 17.92123 | 114 ft | 9 kts | 8° |
| 2026-05-07 07:57 | 59.64550 | 17.92145 | 114 ft | 10 kts | 10° |
| 2026-05-07 07:57 | 59.64621 | 17.92174 | 115 ft | 10 kts | 10° |
| 2026-05-07 07:57 | 59.64683 | 17.92193 | 115 ft | 9 kts | 8° |
| 2026-05-07 07:58 | 59.64746 | 17.92213 | 115 ft | 9 kts | 9° |
| 2026-05-07 07:58 | 59.64813 | 17.92237 | 116 ft | 10 kts | 11° |
| 2026-05-07 07:58 | 59.64885 | 17.92269 | 115 ft | 11 kts | 12° |
| 2026-05-07 07:58 | 59.64962 | 17.92294 | 113 ft | 12 kts | 9° |
| 2026-05-07 07:59 | 59.65043 | 17.92323 | 117 ft | 12 kts | 11° |
| 2026-05-07 07:59 | 59.65130 | 17.92355 | 114 ft | 13 kts | 11° |
| 2026-05-07 07:59 | 59.65221 | 17.92391 | 118 ft | 14 kts | 14° |
| 2026-05-07 07:59 | 59.65312 | 17.92469 | 117 ft | 15 kts | 30° |
| 2026-05-07 08:00 | 59.65394 | 17.92601 | 117 ft | 16 kts | 44° |
| 2026-05-07 08:00 | 59.65457 | 17.92790 | 118 ft | 17 kts | 69° |
| 2026-05-07 08:00 | 59.65495 | 17.93027 | 116 ft | 19 kts | 73° |
| 2026-05-07 08:00 | 59.65530 | 17.93290 | 116 ft | 21 kts | 77° |
| 2026-05-07 08:01 | 59.65567 | 17.93576 | 117 ft | 22 kts | 74° |
| 2026-05-07 08:01 | 59.65599 | 17.93823 | 117 ft | 8 kts | 76° |
| 2026-05-07 08:01 | 59.65615 | 17.93939 | 116 ft | 9 kts | 69° |
| 2026-05-07 08:01 | 59.65647 | 17.94046 | 116 ft | 9 kts | 54° |
| 2026-05-07 08:02 | 59.65687 | 17.94149 | 117 ft | 10 kts | 52° |
| 2026-05-07 08:02 | 59.65727 | 17.94258 | 117 ft | 10 kts | 60° |
| 2026-05-07 08:02 | 59.65757 | 17.94385 | 119 ft | 10 kts | 72° |
| 2026-05-07 08:02 | 59.65775 | 17.94527 | 120 ft | 11 kts | 77° |
| 2026-05-07 08:03 | 59.65792 | 17.94676 | 117 ft | 11 kts | 77° |
| 2026-05-07 08:03 | 59.65812 | 17.94831 | 121 ft | 12 kts | 75° |
| 2026-05-07 08:03 | 59.65835 | 17.94994 | 120 ft | 13 kts | 74° |
| 2026-05-07 08:03 | 59.65858 | 17.95165 | 123 ft | 13 kts | 79° |
| 2026-05-07 08:04 | 59.65804 | 17.95158 | 119 ft | 10 kts | 212° |
| 2026-05-07 08:04 | 59.65755 | 17.95040 | 120 ft | 13 kts | 248° |
| 2026-05-07 08:04 | 59.65734 | 17.94856 | 121 ft | 15 kts | 261° |
| 2026-05-07 08:04 | 59.65712 | 17.94642 | 117 ft | 17 kts | 256° |
| 2026-05-07 08:05 | 59.65683 | 17.94398 | 118 ft | 19 kts | 257° |
| 2026-05-07 08:05 | 59.65653 | 17.94126 | 118 ft | 21 kts | 258° |
| 2026-05-07 08:05 | 59.65593 | 17.93890 | 115 ft | 19 kts | 187° |
| 2026-05-07 08:05 | 59.65463 | 17.93926 | 115 ft | 17 kts | 172° |
| 2026-05-07 08:06 | 59.65417 | 17.93864 | 115 ft | 7 kts | 242° |
| 2026-05-07 08:06 | 59.65410 | 17.93826 | 116 ft | 0 kts | 248° |
| 2026-05-07 08:06 | 59.65407 | 17.93812 | 117 ft | 2 kts | 246° |
| 2026-05-07 08:06 | 59.65402 | 17.93789 | 117 ft | 1 kts | 249° |
| 2026-05-07 08:07 | 59.65401 | 17.93781 | 112 ft | 0 kts | 249° |